Time;durP1;ratioP1;P1;durP2;ratioP2;P2;SDS_P1;SDS_P2;PMS_P1;PMS_P2;Temp;Humidity;BMP_temperature;BMP_pressure;BME280_temperature;BME280_humidity;BME280_pressure;Samples;Min_cycle;Max_cycle;Signal;HPM_P1;HPM_P2
2024/02/28 00:02:10;;;;;;;8.57;5.85;;;7.20;99.90;;;;;;5005280;28;20582;-72
2024/02/28 00:04:37;;;;;;;9.30;7.47;;;7.20;99.90;;;;;;4982690;28;20229;-73
2024/02/28 00:07:03;;;;;;;11.27;7.25;;;7.20;99.90;;;;;;4989574;28;20712;-72
2024/02/28 00:09:31;;;;;;;9.57;7.15;;;7.20;99.90;;;;;;4993562;28;20207;-73
2024/02/28 00:11:58;;;;;;;13.02;6.95;;;7.20;99.90;;;;;;4993995;28;20211;-73
2024/02/28 00:14:25;;;;;;;10.77;6.78;;;7.10;99.90;;;;;;4988863;28;20228;-72
2024/02/28 00:16:52;;;;;;;13.00;6.50;;;7.10;99.90;;;;;;4993980;28;20196;-72
2024/02/28 00:19:20;;;;;;;11.68;7.20;;;7.10;99.90;;;;;;4977206;28;20757;-73
2024/02/28 00:21:46;;;;;;;9.02;6.85;;;7.10;99.90;;;;;;4982948;28;20295;-73
2024/02/28 00:24:13;;;;;;;11.10;6.80;;;7.10;99.90;;;;;;4983550;28;20224;-73
2024/02/28 00:26:43;;;;;;;8.52;6.38;;;7.00;99.90;;;;;;4982876;28;20224;-72
2024/02/28 00:29:10;;;;;;;16.30;7.47;;;7.00;99.90;;;;;;4982767;28;20204;-72
2024/02/28 00:31:37;;;;;;;10.32;6.97;;;7.00;99.90;;;;;;4990717;28;20204;-73
2024/02/28 00:34:03;;;;;;;12.45;6.57;;;7.00;99.90;;;;;;4989722;28;20227;-73
2024/02/28 00:36:30;;;;;;;9.75;7.53;;;7.10;99.90;;;;;;4979279;28;20211;-72
2024/02/28 00:38:57;;;;;;;15.27;8.60;;;7.00;99.90;;;;;;4987982;28;20212;-73
2024/02/28 00:41:23;;;;;;;8.82;6.10;;;7.00;99.90;;;;;;4976492;28;20206;-73
2024/02/28 00:43:51;;;;;;;14.38;9.77;;;7.00;99.90;;;;;;4980327;28;20626;-72
2024/02/28 00:46:18;;;;;;;12.00;8.00;;;7.00;99.90;;;;;;4994569;28;20332;-73
2024/02/28 00:48:45;;;;;;;13.80;7.15;;;6.90;99.90;;;;;;4986215;28;20203;-72
2024/02/28 00:51:11;;;;;;;10.98;7.35;;;6.90;99.90;;;;;;4994510;28;20208;-72
2024/02/28 00:53:38;;;;;;;11.60;7.13;;;6.80;99.90;;;;;;4991498;28;20720;-73
2024/02/28 00:56:06;;;;;;;9.18;6.53;;;6.80;99.90;;;;;;4976107;28;20204;-72
2024/02/28 00:58:32;;;;;;;11.00;6.90;;;6.70;99.90;;;;;;4991583;28;20208;-73
2024/02/28 01:01:00;;;;;;;12.45;6.55;;;6.70;99.90;;;;;;4988909;28;20584;-72
2024/02/28 01:03:27;;;;;;;10.35;7.03;;;6.60;99.90;;;;;;4987457;28;20227;-73
2024/02/28 01:05:54;;;;;;;10.13;7.10;;;6.60;99.90;;;;;;4986940;28;20302;-72
2024/02/28 01:08:20;;;;;;;13.75;8.20;;;6.60;99.90;;;;;;4986812;28;20688;-73
2024/02/28 01:10:46;;;;;;;13.30;7.47;;;6.50;99.90;;;;;;4987618;28;20208;-73
2024/02/28 01:13:13;;;;;;;10.30;7.80;;;6.50;99.90;;;;;;4994492;28;20668;-73
2024/02/28 01:15:41;;;;;;;10.57;6.90;;;6.50;99.90;;;;;;4980355;28;20199;-72
2024/02/28 01:18:09;;;;;;;12.05;6.97;;;6.60;99.90;;;;;;4987031;28;20215;-73
2024/02/28 01:20:36;;;;;;;11.10;7.00;;;6.60;99.90;;;;;;4980778;28;20210;-73
2024/02/28 01:23:04;;;;;;;12.45;6.93;;;6.60;99.90;;;;;;4989944;28;20203;-73
2024/02/28 01:25:30;;;;;;;13.07;7.18;;;6.60;99.90;;;;;;4986723;28;20568;-72
2024/02/28 01:27:57;;;;;;;15.23;8.02;;;6.60;99.90;;;;;;4981918;28;20212;-73
2024/02/28 01:30:24;;;;;;;16.58;9.43;;;6.60;99.90;;;;;;4981128;28;20220;-73
2024/02/28 01:32:51;;;;;;;9.95;7.45;;;6.60;99.90;;;;;;4987373;28;20203;-72
2024/02/28 01:35:19;;;;;;;10.98;7.53;;;6.70;99.90;;;;;;4995423;28;20609;-72
2024/02/28 01:37:46;;;;;;;9.57;6.28;;;6.60;99.90;;;;;;4987470;28;20207;-72
2024/02/28 01:40:13;;;;;;;10.68;5.90;;;6.60;99.90;;;;;;4994546;28;20219;-72
2024/02/28 01:42:40;;;;;;;15.82;7.47;;;6.60;99.90;;;;;;4995145;28;20211;-72
2024/02/28 01:45:08;;;;;;;10.77;6.80;;;6.60;99.90;;;;;;4988588;28;20232;-73
2024/02/28 01:47:35;;;;;;;13.35;7.50;;;6.50;99.90;;;;;;4995706;28;20250;-73
2024/02/28 01:50:02;;;;;;;13.05;7.50;;;6.60;99.90;;;;;;4994217;28;20207;-72
2024/02/28 01:52:30;;;;;;;11.02;8.02;;;6.60;99.90;;;;;;4996565;28;20214;-74
2024/02/28 01:54:57;;;;;;;11.63;6.90;;;6.60;99.90;;;;;;4991660;28;20234;-74
2024/02/28 01:57:24;;;;;;;9.07;6.45;;;6.60;99.90;;;;;;4995645;28;20243;-74
2024/02/28 01:59:51;;;;;;;9.65;6.90;;;6.60;99.90;;;;;;4981903;28;20211;-74
2024/02/28 02:02:18;;;;;;;15.20;7.80;;;6.60;99.90;;;;;;4995758;28;20209;-74
2024/02/28 02:04:44;;;;;;;15.77;9.18;;;6.60;99.90;;;;;;4992047;28;20244;-75
2024/02/28 02:07:11;;;;;;;10.30;7.30;;;6.70;99.90;;;;;;4984804;28;20223;-74
2024/02/28 02:09:40;;;;;;;13.27;7.55;;;6.70;99.90;;;;;;4997837;28;20211;-74
2024/02/28 02:12:07;;;;;;;10.23;6.30;;;6.70;99.90;;;;;;4989026;28;20212;-74
2024/02/28 02:14:34;;;;;;;12.05;7.10;;;6.70;99.90;;;;;;4995271;28;20260;-74
2024/02/28 02:17:01;;;;;;;14.07;8.13;;;6.70;99.90;;;;;;4994827;28;20211;-75
2024/02/28 02:19:27;;;;;;;14.23;7.80;;;6.70;99.90;;;;;;4994008;28;20215;-74
2024/02/28 02:21:58;;;;;;;10.98;7.80;;;6.70;99.90;;;;;;4989626;28;20214;-74
2024/02/28 02:24:26;;;;;;;17.05;9.70;;;6.60;99.90;;;;;;4996525;28;20227;-74
2024/02/28 02:26:56;;;;;;;11.43;7.90;;;6.60;99.90;;;;;;4989173;28;20700;-74
2024/02/28 02:29:23;;;;;;;9.85;7.65;;;6.50;99.90;;;;;;4995959;28;20208;-74
2024/02/28 02:31:49;;;;;;;15.85;7.25;;;6.50;99.90;;;;;;4995026;28;20580;-74
2024/02/28 02:34:16;;;;;;;12.98;6.72;;;6.50;99.90;;;;;;4995836;28;20246;-74
2024/02/28 02:36:43;;;;;;;17.63;8.50;;;6.50;99.90;;;;;;4995996;28;20649;-74
2024/02/28 02:39:09;;;;;;;13.15;8.68;;;6.50;99.90;;;;;;4988885;28;20204;-74
2024/02/28 02:41:38;;;;;;;13.07;7.88;;;6.50;99.90;;;;;;4997334;28;20213;-74
2024/02/28 02:44:05;;;;;;;11.85;8.43;;;6.50;99.90;;;;;;4989055;28;20223;-74
2024/02/28 02:46:31;;;;;;;12.52;8.45;;;6.50;99.90;;;;;;4995311;28;20233;-74
2024/02/28 02:48:58;;;;;;;13.32;7.60;;;6.50;99.90;;;;;;4994820;28;20204;-74
2024/02/28 02:51:25;;;;;;;15.40;9.13;;;6.50;99.90;;;;;;4997377;28;20229;-74
2024/02/28 02:53:53;;;;;;;16.95;8.65;;;6.60;99.90;;;;;;4992023;28;20224;-75
2024/02/28 02:56:20;;;;;;;13.05;8.07;;;6.60;99.90;;;;;;4998103;28;20737;-74
2024/02/28 02:58:48;;;;;;;10.25;7.20;;;6.50;99.90;;;;;;4993388;28;20206;-74
2024/02/28 03:01:15;;;;;;;13.32;7.45;;;6.50;99.90;;;;;;4990286;28;20212;-75
2024/02/28 03:03:42;;;;;;;16.38;7.40;;;6.50;99.90;;;;;;4987117;28;20296;-74
2024/02/28 03:06:09;;;;;;;11.23;7.45;;;6.50;99.90;;;;;;4996806;28;20226;-75
2024/02/28 03:08:36;;;;;;;10.77;7.05;;;6.50;99.90;;;;;;4982809;28;20694;-75
2024/02/28 03:11:04;;;;;;;14.43;8.02;;;6.50;99.90;;;;;;4995877;28;20217;-75
2024/02/28 03:13:31;;;;;;;12.40;7.80;;;6.50;99.90;;;;;;4996105;28;20650;-75
2024/02/28 03:15:59;;;;;;;11.05;8.73;;;6.50;99.90;;;;;;4985034;28;20211;-75
2024/02/28 03:18:25;;;;;;;15.18;8.13;;;6.40;99.90;;;;;;4991583;28;20218;-75
2024/02/28 03:20:52;;;;;;;11.63;6.97;;;6.40;99.90;;;;;;4993492;28;20203;-74
2024/02/28 03:23:19;;;;;;;14.40;7.95;;;6.40;99.90;;;;;;5001556;28;20599;-74
2024/02/28 03:25:46;;;;;;;11.20;7.20;;;6.40;99.90;;;;;;4985159;28;20306;-74
2024/02/28 03:28:12;;;;;;;14.35;8.05;;;6.50;99.90;;;;;;4985095;28;20220;-73
2024/02/28 03:30:39;;;;;;;11.90;7.90;;;6.50;99.90;;;;;;4991511;28;20592;-73
2024/02/28 03:33:07;;;;;;;11.90;8.10;;;6.50;99.90;;;;;;5006011;28;20209;-74
2024/02/28 03:35:34;;;;;;;12.98;8.00;;;6.50;99.90;;;;;;4999522;28;20215;-74
2024/02/28 03:38:01;;;;;;;12.63;7.57;;;6.50;99.90;;;;;;4985260;28;20204;-74
2024/02/28 03:40:28;;;;;;;12.68;7.00;;;6.50;99.90;;;;;;4995006;28;20678;-73
2024/02/28 03:42:54;;;;;;;14.18;7.55;;;6.50;99.90;;;;;;4986067;28;20215;-73
2024/02/28 03:45:21;;;;;;;10.50;7.47;;;6.40;99.90;;;;;;4993695;28;20228;-73
2024/02/28 03:47:48;;;;;;;11.05;7.10;;;6.40;99.90;;;;;;4989874;28;20223;-74
2024/02/28 03:50:16;;;;;;;14.57;8.48;;;6.40;99.90;;;;;;4994624;28;20598;-74
2024/02/28 03:52:43;;;;;;;12.82;7.10;;;6.40;99.90;;;;;;4996509;28;20202;-74
2024/02/28 03:55:10;;;;;;;11.35;7.15;;;6.40;99.90;;;;;;4996028;28;20232;-74
2024/02/28 03:57:36;;;;;;;14.48;7.68;;;6.40;99.90;;;;;;4991853;28;20198;-74
2024/02/28 04:00:04;;;;;;;15.82;8.05;;;6.40;99.90;;;;;;4994538;28;20600;-74
2024/02/28 04:02:31;;;;;;;12.73;7.40;;;6.40;99.90;;;;;;4997567;28;20204;-74
2024/02/28 04:04:58;;;;;;;12.30;7.50;;;6.40;99.90;;;;;;4991557;28;20709;-74
2024/02/28 04:07:26;;;;;;;13.93;7.03;;;6.30;99.90;;;;;;4995091;28;20710;-74
2024/02/28 04:09:52;;;;;;;12.77;8.77;;;6.30;99.90;;;;;;4994962;28;20207;-74
2024/02/28 04:12:19;;;;;;;16.90;9.35;;;6.30;99.90;;;;;;4996086;28;20586;-74
2024/02/28 04:14:46;;;;;;;13.80;7.80;;;6.30;99.90;;;;;;4995004;28;20228;-74
2024/02/28 04:17:12;;;;;;;14.15;8.30;;;6.30;99.90;;;;;;4992010;28;20203;-73
2024/02/28 04:19:39;;;;;;;16.20;8.68;;;6.20;99.90;;;;;;5002117;28;20211;-74
2024/02/28 04:22:06;;;;;;;10.40;7.35;;;6.30;99.90;;;;;;4995831;28;20227;-74
2024/02/28 04:24:34;;;;;;;12.90;7.85;;;6.20;99.90;;;;;;4997386;28;20237;-74
2024/02/28 04:27:02;;;;;;;11.63;7.68;;;6.20;99.90;;;;;;4989356;28;20247;-74
2024/02/28 04:29:29;;;;;;;16.25;7.47;;;6.20;99.90;;;;;;4991471;28;20266;-74
2024/02/28 04:31:56;;;;;;;12.40;8.07;;;6.20;99.90;;;;;;4993212;28;20617;-75
2024/02/28 04:34:23;;;;;;;11.93;6.63;;;6.10;99.90;;;;;;4993119;28;20229;-76
2024/02/28 04:36:49;;;;;;;12.75;7.15;;;6.10;99.90;;;;;;4988288;28;20203;-74
2024/02/28 04:39:16;;;;;;;12.57;7.45;;;6.10;99.90;;;;;;4994058;28;20561;-74
2024/02/28 04:41:44;;;;;;;13.27;7.40;;;6.10;99.90;;;;;;4992285;28;20203;-74
2024/02/28 04:44:11;;;;;;;13.43;8.05;;;6.10;99.90;;;;;;4988601;28;20246;-74
2024/02/28 04:46:38;;;;;;;11.27;6.55;;;6.00;99.90;;;;;;4996689;28;20202;-74
2024/02/28 04:49:05;;;;;;;14.15;7.28;;;6.10;99.90;;;;;;4991727;28;20212;-74
2024/02/28 04:51:31;;;;;;;14.43;8.02;;;6.00;99.90;;;;;;4988372;28;20257;-74
2024/02/28 04:53:58;;;;;;;14.95;8.60;;;6.00;99.90;;;;;;4990999;28;20227;-74
2024/02/28 04:56:25;;;;;;;13.05;8.13;;;6.10;99.90;;;;;;4998068;28;20211;-74
2024/02/28 04:58:53;;;;;;;11.43;7.68;;;6.10;99.90;;;;;;4992281;28;20577;-74
2024/02/28 05:01:19;;;;;;;14.18;8.57;;;6.10;99.90;;;;;;4993530;28;20301;-74
2024/02/28 05:03:46;;;;;;;14.77;7.97;;;6.10;99.90;;;;;;4999227;28;20698;-74
2024/02/28 05:06:13;;;;;;;14.68;8.80;;;6.10;99.90;;;;;;4989704;28;20581;-74
2024/02/28 05:08:39;;;;;;;11.50;7.80;;;6.10;99.90;;;;;;4992668;28;20219;-74
2024/02/28 05:11:06;;;;;;;11.23;7.25;;;6.00;99.90;;;;;;4993551;28;20199;-74
2024/02/28 05:13:33;;;;;;;13.50;8.30;;;6.00;99.90;;;;;;4996772;28;20451;-73
2024/02/28 05:16:01;;;;;;;13.85;8.85;;;6.00;99.90;;;;;;4988578;28;20203;-73
2024/02/28 05:18:27;;;;;;;11.27;7.85;;;6.00;99.90;;;;;;4988371;28;20218;-73
2024/02/28 05:20:54;;;;;;;13.93;8.38;;;6.00;99.90;;;;;;4987444;28;20200;-73
2024/02/28 05:23:21;;;;;;;12.48;7.05;;;6.00;99.90;;;;;;4983212;28;20212;-74
2024/02/28 05:25:48;;;;;;;15.68;8.00;;;6.00;99.90;;;;;;4984767;28;20595;-75
2024/02/28 05:28:15;;;;;;;13.85;8.77;;;6.00;99.90;;;;;;4995223;28;20222;-76
2024/02/28 05:30:42;;;;;;;13.10;7.70;;;6.00;99.90;;;;;;4983859;28;20268;-75
2024/02/28 05:33:11;;;;;;;16.27;9.57;;;6.00;99.90;;;;;;4995836;28;20208;-75
2024/02/28 05:35:38;;;;;;;14.45;8.40;;;6.00;99.90;;;;;;4994300;28;20836;-76
2024/02/28 05:38:05;;;;;;;12.10;7.00;;;6.00;99.90;;;;;;5000552;28;20207;-76
2024/02/28 05:40:31;;;;;;;11.90;6.72;;;6.10;99.90;;;;;;5003228;28;20211;-76
2024/02/28 05:42:58;;;;;;;11.10;7.65;;;6.00;99.90;;;;;;4992216;28;20214;-76
2024/02/28 05:45:25;;;;;;;13.07;7.75;;;6.00;99.90;;;;;;5001001;28;20238;-76
2024/02/28 05:47:51;;;;;;;14.23;8.07;;;6.00;99.90;;;;;;5001167;28;20222;-75
2024/02/28 05:50:19;;;;;;;15.18;8.30;;;6.00;99.90;;;;;;4998989;28;20569;-76
2024/02/28 05:52:46;;;;;;;12.93;7.68;;;6.00;99.90;;;;;;5000660;28;20213;-76
2024/02/28 05:55:13;;;;;;;11.95;7.78;;;5.90;99.90;;;;;;4997516;28;20228;-75
2024/02/28 05:57:39;;;;;;;17.05;8.45;;;5.90;99.90;;;;;;5000765;28;20208;-74
2024/02/28 06:00:09;;;;;;;12.93;8.90;;;5.90;99.90;;;;;;4997832;28;20203;-75
2024/02/28 06:02:36;;;;;;;15.63;9.20;;;5.90;99.90;;;;;;5004202;28;20233;-74
2024/02/28 06:05:03;;;;;;;11.93;7.70;;;5.90;99.90;;;;;;5001453;28;20230;-74
2024/02/28 06:07:31;;;;;;;13.35;9.07;;;5.90;99.90;;;;;;5003194;28;20227;-75
2024/02/28 06:09:58;;;;;;;14.02;8.18;;;5.90;99.90;;;;;;5003599;28;20207;-74
2024/02/28 06:12:25;;;;;;;16.55;9.00;;;5.90;99.90;;;;;;4999605;28;20210;-75
2024/02/28 06:14:51;;;;;;;10.00;7.75;;;6.00;99.90;;;;;;5002417;28;20249;-74
2024/02/28 06:17:18;;;;;;;17.42;9.02;;;5.90;99.90;;;;;;5001748;28;20205;-75
2024/02/28 06:19:45;;;;;;;11.68;7.15;;;5.90;99.90;;;;;;4997875;28;20206;-74
2024/02/28 06:22:11;;;;;;;11.07;7.25;;;5.90;99.90;;;;;;4996403;28;20215;-75
2024/02/28 06:24:39;;;;;;;14.10;8.48;;;5.90;99.90;;;;;;5003175;28;20231;-75
2024/02/28 06:27:12;;;;;;;12.95;8.48;;;5.90;99.90;;;;;;4997147;28;20562;-75
2024/02/28 06:29:38;;;;;;;14.23;7.80;;;5.90;99.90;;;;;;4993151;28;20266;-75
2024/02/28 06:32:05;;;;;;;14.35;8.00;;;5.90;99.90;;;;;;4996880;28;20211;-75
2024/02/28 06:34:32;;;;;;;11.50;7.38;;;5.90;99.90;;;;;;5001829;28;20235;-75
2024/02/28 06:36:59;;;;;;;12.73;6.80;;;6.00;99.90;;;;;;4998147;28;20211;-76
2024/02/28 06:39:25;;;;;;;10.82;7.88;;;6.00;99.90;;;;;;5000196;28;20211;-76
2024/02/28 06:41:54;;;;;;;11.73;7.82;;;6.00;99.90;;;;;;5005368;28;20214;-76
2024/02/28 06:44:21;;;;;;;12.27;9.25;;;5.90;99.90;;;;;;4995349;28;20786;-75
2024/02/28 06:46:47;;;;;;;13.20;8.23;;;6.00;99.90;;;;;;5005115;28;20214;-76
2024/02/28 06:49:14;;;;;;;12.50;7.85;;;6.00;99.90;;;;;;4998342;28;20234;-76
2024/02/28 06:51:41;;;;;;;13.93;7.60;;;6.00;99.90;;;;;;5005386;28;20746;-76
2024/02/28 06:54:07;;;;;;;10.32;7.53;;;6.00;99.90;;;;;;5000255;28;20236;-75
2024/02/28 06:56:34;;;;;;;12.73;7.45;;;6.00;99.90;;;;;;5005399;28;20207;-75
2024/02/28 06:59:02;;;;;;;13.05;7.78;;;6.00;99.90;;;;;;5004044;28;20210;-76
2024/02/28 07:01:30;;;;;;;10.18;7.30;;;6.00;99.90;;;;;;5008690;28;20215;-76
2024/02/28 07:03:57;;;;;;;11.57;7.78;;;6.10;99.90;;;;;;5009365;28;20261;-78
2024/02/28 07:06:23;;;;;;;9.82;7.57;;;6.10;99.90;;;;;;5005152;28;20211;-83
2024/02/28 07:08:51;;;;;;;12.07;7.90;;;6.10;99.90;;;;;;5009905;28;20230;-76
2024/02/28 07:11:18;;;;;;;12.68;7.97;;;6.10;99.90;;;;;;5012397;28;20207;-75
2024/02/28 07:13:44;;;;;;;14.05;8.48;;;6.10;99.90;;;;;;5003365;28;20242;-75
2024/02/28 07:16:12;;;;;;;10.63;7.00;;;6.10;99.90;;;;;;4993195;28;20211;-74
2024/02/28 07:18:39;;;;;;;15.18;7.38;;;6.10;99.90;;;;;;4988947;28;20223;-74
2024/02/28 07:21:06;;;;;;;13.38;8.07;;;6.10;99.90;;;;;;4985986;28;20204;-74
2024/02/28 07:23:33;;;;;;;13.45;7.60;;;6.20;99.90;;;;;;4987453;28;20231;-74
2024/02/28 07:26:00;;;;;;;11.40;6.97;;;6.20;99.90;;;;;;4985474;28;20204;-73
2024/02/28 07:28:27;;;;;;;13.05;7.88;;;6.20;99.90;;;;;;5000784;28;20219;-73
2024/02/28 07:30:53;;;;;;;10.50;6.50;;;6.20;99.90;;;;;;4997578;28;20215;-74
2024/02/28 07:33:21;;;;;;;12.88;8.18;;;6.20;99.90;;;;;;5005232;28;20199;-74
2024/02/28 07:35:49;;;;;;;16.15;8.45;;;6.20;99.90;;;;;;5001241;28;20221;-74
2024/02/28 07:38:17;;;;;;;11.88;7.72;;;6.20;99.90;;;;;;5003475;28;20558;-74
2024/02/28 07:40:44;;;;;;;14.55;7.82;;;6.20;99.90;;;;;;5009885;28;20660;-74
2024/02/28 07:43:10;;;;;;;16.40;8.27;;;6.20;99.90;;;;;;4997861;28;20594;-74
2024/02/28 07:45:37;;;;;;;10.07;7.35;;;6.30;99.90;;;;;;4992997;28;20211;-74
2024/02/28 07:48:04;;;;;;;15.30;8.30;;;6.30;99.90;;;;;;5004631;28;20229;-74
2024/02/28 07:50:32;;;;;;;10.85;7.70;;;6.30;99.90;;;;;;5002051;28;20212;-74
2024/02/28 07:52:59;;;;;;;11.52;7.30;;;6.30;99.90;;;;;;5005312;28;20219;-74
2024/02/28 07:55:26;;;;;;;15.57;7.68;;;6.30;99.90;;;;;;5006672;28;20253;-74
2024/02/28 07:57:53;;;;;;;9.55;7.50;;;6.30;99.90;;;;;;5002030;28;20211;-74
2024/02/28 08:00:20;;;;;;;11.55;7.97;;;6.30;99.90;;;;;;4996001;28;20215;-76
2024/02/28 08:02:47;;;;;;;10.65;7.45;;;6.40;99.90;;;;;;5005342;28;20643;-74
2024/02/28 08:05:14;;;;;;;10.77;6.65;;;6.40;99.90;;;;;;4997864;28;20226;-74
2024/02/28 08:07:43;;;;;;;12.60;7.70;;;6.30;99.90;;;;;;5005849;28;20212;-74
2024/02/28 08:10:11;;;;;;;11.70;7.38;;;6.20;99.90;;;;;;5000022;28;20648;-75
2024/02/28 08:12:38;;;;;;;12.57;8.65;;;6.30;99.90;;;;;;4993153;28;20211;-74
2024/02/28 08:15:06;;;;;;;9.95;7.50;;;6.30;99.90;;;;;;4999988;28;20238;-74
2024/02/28 08:17:33;;;;;;;9.60;6.63;;;6.40;99.90;;;;;;5003059;28;20207;-74
2024/02/28 08:20:00;;;;;;;10.88;7.30;;;6.40;99.90;;;;;;5002792;28;20687;-74
2024/02/28 08:22:27;;;;;;;8.98;6.05;;;6.40;99.90;;;;;;5001624;28;20214;-74
2024/02/28 08:24:55;;;;;;;11.77;8.10;;;6.50;99.90;;;;;;5003712;28;20558;-75
2024/02/28 08:27:23;;;;;;;12.25;7.80;;;6.60;99.90;;;;;;4993487;28;20208;-75
2024/02/28 08:29:50;;;;;;;13.00;7.75;;;6.60;99.90;;;;;;4995471;28;20309;-75
2024/02/28 08:32:18;;;;;;;9.70;6.68;;;6.60;99.90;;;;;;5007464;28;20238;-75
2024/02/28 08:34:46;;;;;;;8.10;5.85;;;6.60;99.90;;;;;;5009453;28;20227;-75
2024/02/28 08:37:12;;;;;;;15.32;8.15;;;6.60;99.90;;;;;;5007421;28;20217;-75
2024/02/28 08:39:39;;;;;;;10.75;6.75;;;6.60;99.90;;;;;;5000648;28;20219;-75
2024/02/28 08:42:08;;;;;;;12.35;7.00;;;6.70;99.90;;;;;;4991027;28;20207;-75
2024/02/28 08:44:34;;;;;;;9.73;7.63;;;6.70;99.90;;;;;;5002634;28;20238;-75
2024/02/28 08:47:01;;;;;;;7.13;5.60;;;6.80;99.90;;;;;;4999860;28;20301;-75
2024/02/28 08:49:29;;;;;;;11.93;7.63;;;6.80;99.90;;;;;;5005084;28;20227;-75
2024/02/28 08:51:56;;;;;;;9.80;7.70;;;6.80;99.90;;;;;;5007418;28;20290;-75
2024/02/28 08:54:22;;;;;;;11.15;7.55;;;6.80;99.90;;;;;;5006874;28;20234;-75
2024/02/28 08:56:49;;;;;;;9.05;6.93;;;6.80;99.90;;;;;;5001485;28;20216;-74
2024/02/28 08:59:17;;;;;;;10.75;6.40;;;6.80;99.90;;;;;;5000071;28;20210;-75
2024/02/28 09:01:44;;;;;;;11.52;7.47;;;6.80;99.90;;;;;;5004270;28;20636;-75
2024/02/28 09:04:11;;;;;;;10.90;7.50;;;6.90;99.90;;;;;;5001908;28;20252;-75
2024/02/28 09:06:37;;;;;;;15.75;8.52;;;6.80;99.90;;;;;;4996830;28;20207;-75
2024/02/28 09:09:04;;;;;;;12.30;7.13;;;6.80;99.90;;;;;;4991664;28;20219;-75
2024/02/28 09:11:31;;;;;;;10.38;6.50;;;6.80;99.90;;;;;;4991470;28;20697;-75
2024/02/28 09:13:57;;;;;;;13.75;7.30;;;6.90;99.90;;;;;;4998664;28;20231;-75
2024/02/28 09:16:25;;;;;;;8.27;6.03;;;7.00;99.90;;;;;;5006461;28;20203;-75
2024/02/28 09:18:52;;;;;;;10.90;7.03;;;7.00;99.90;;;;;;5007376;28;20223;-75
2024/02/28 09:21:19;;;;;;;11.65;7.38;;;7.10;99.90;;;;;;5008326;28;20294;-75
2024/02/28 09:23:45;;;;;;;11.27;7.18;;;7.20;99.90;;;;;;4986219;28;20223;-74
2024/02/28 09:26:12;;;;;;;13.68;7.63;;;7.20;99.90;;;;;;4989320;28;20210;-74
2024/02/28 09:28:39;;;;;;;13.05;8.18;;;7.20;99.90;;;;;;5010048;28;20224;-74
2024/02/28 09:31:06;;;;;;;12.57;7.45;;;7.20;99.90;;;;;;5010597;28;20204;-74
2024/02/28 09:33:34;;;;;;;13.43;8.15;;;7.20;99.90;;;;;;5008757;28;20243;-74
2024/02/28 09:36:03;;;;;;;12.15;7.90;;;7.20;99.90;;;;;;4998452;28;20204;-74
2024/02/28 09:38:32;;;;;;;14.65;9.02;;;7.20;99.90;;;;;;4994722;28;20210;-74
2024/02/28 09:40:59;;;;;;;15.32;9.45;;;7.20;99.90;;;;;;5004441;28;20332;-74
2024/02/28 09:43:29;;;;;;;17.80;8.45;;;7.20;99.90;;;;;;5007614;28;20617;-74
2024/02/28 09:46:00;;;;;;;15.90;8.40;;;7.20;99.90;;;;;;5010411;28;20209;-74
2024/02/28 09:48:29;;;;;;;14.05;9.48;;;7.20;99.90;;;;;;5000325;28;20222;-74
2024/02/28 09:50:58;;;;;;;12.20;8.57;;;7.10;99.90;;;;;;5005313;28;20204;-74
2024/02/28 09:53:25;;;;;;;12.77;7.60;;;7.10;99.90;;;;;;5002864;28;20236;-74
2024/02/28 09:55:52;;;;;;;15.27;9.00;;;7.10;99.90;;;;;;5011000;28;20206;-74
2024/02/28 09:58:20;;;;;;;12.32;8.07;;;7.10;99.90;;;;;;5001897;28;20200;-74
2024/02/28 10:00:48;;;;;;;14.13;8.35;;;7.20;99.90;;;;;;5009936;28;20290;-73
2024/02/28 10:03:18;;;;;;;12.50;7.75;;;7.20;99.90;;;;;;5002287;28;20207;-74
2024/02/28 10:05:45;;;;;;;11.48;7.45;;;7.20;99.90;;;;;;5010867;28;20203;-74
2024/02/28 10:08:14;;;;;;;10.63;7.97;;;7.10;99.90;;;;;;5009850;28;20204;-74
2024/02/28 10:10:46;;;;;;;12.70;6.45;;;7.20;99.90;;;;;;5002942;28;20656;-74
2024/02/28 10:13:13;;;;;;;10.15;6.90;;;7.20;99.90;;;;;;5002868;28;20203;-74
2024/02/28 10:15:40;;;;;;;10.27;6.55;;;7.20;99.90;;;;;;4992211;28;20583;-73
2024/02/28 10:18:07;;;;;;;9.50;6.05;;;7.30;99.90;;;;;;5006595;28;20207;-74
2024/02/28 10:20:35;;;;;;;14.35;6.82;;;7.30;99.90;;;;;;5002417;28;20203;-74
2024/02/28 10:23:05;;;;;;;12.63;7.80;;;7.30;99.90;;;;;;5003224;28;20210;-74
2024/02/28 10:25:33;;;;;;;9.32;7.10;;;7.40;99.90;;;;;;5010680;28;20212;-73
2024/02/28 10:28:01;;;;;;;7.20;6.07;;;7.40;99.90;;;;;;5011049;28;20207;-74
2024/02/28 10:30:28;;;;;;;11.43;7.32;;;7.50;99.90;;;;;;5010348;28;20650;-74
2024/02/28 10:32:56;;;;;;;10.00;6.25;;;7.50;99.90;;;;;;5003626;28;20217;-74
2024/02/28 10:35:25;;;;;;;11.73;7.00;;;7.50;99.90;;;;;;4992650;28;20631;-74
2024/02/28 10:37:52;;;;;;;12.50;8.00;;;7.60;99.90;;;;;;4986400;28;20204;-74
2024/02/28 10:40:21;;;;;;;14.88;8.48;;;7.60;99.90;;;;;;4995704;28;20206;-75
2024/02/28 10:42:49;;;;;;;9.82;7.10;;;7.70;99.90;;;;;;4989676;28;20206;-75
2024/02/28 10:45:18;;;;;;;12.57;6.95;;;7.70;99.90;;;;;;4994254;28;20716;-74
2024/02/28 10:47:47;;;;;;;11.27;7.47;;;7.70;99.90;;;;;;4996184;28;20722;-75
2024/02/28 10:50:15;;;;;;;11.15;8.23;;;7.60;99.90;;;;;;4994732;28;20243;-74
2024/02/28 10:52:46;;;;;;;16.80;8.15;;;7.60;99.90;;;;;;5002800;28;20582;-75
2024/02/28 10:55:14;;;;;;;12.23;7.18;;;7.60;99.90;;;;;;4994924;28;20634;-75
2024/02/28 10:57:43;;;;;;;12.32;7.22;;;7.60;99.90;;;;;;4991923;28;20203;-74
2024/02/28 11:00:15;;;;;;;9.80;7.05;;;7.50;99.90;;;;;;4976634;28;20200;-74
2024/02/28 11:02:43;;;;;;;12.88;6.78;;;7.40;99.90;;;;;;4977304;28;20612;-74
2024/02/28 11:05:10;;;;;;;12.77;7.38;;;7.40;99.90;;;;;;4984939;28;20276;-74
2024/02/28 11:07:41;;;;;;;12.50;7.68;;;7.40;99.90;;;;;;4995005;28;20206;-74
2024/02/28 11:10:10;;;;;;;12.80;7.50;;;7.30;99.90;;;;;;4995721;28;20223;-75
2024/02/28 11:12:37;;;;;;;11.20;8.00;;;7.30;99.90;;;;;;4985083;28;20238;-75
2024/02/28 11:15:06;;;;;;;9.32;7.00;;;7.40;99.90;;;;;;4984768;28;20278;-75
2024/02/28 11:17:34;;;;;;;12.73;7.97;;;7.40;99.90;;;;;;4987210;28;20571;-74
2024/02/28 11:20:11;;;;;;;10.77;6.80;;;7.40;99.90;;;;;;5009183;28;20201;-74
2024/02/28 11:22:38;;;;;;;12.50;8.48;;;7.40;99.90;;;;;;5001257;28;20208;-75
2024/02/28 11:25:05;;;;;;;8.02;6.05;;;7.40;99.90;;;;;;4988814;28;20668;-75
2024/02/28 11:27:32;;;;;;;12.50;7.72;;;7.50;99.90;;;;;;4999398;28;20689;-74
2024/02/28 11:30:00;;;;;;;12.50;7.28;;;7.50;99.90;;;;;;4991906;28;20226;-74
2024/02/28 11:32:27;;;;;;;10.07;7.72;;;7.50;99.90;;;;;;4987227;28;20227;-75
2024/02/28 11:34:55;;;;;;;10.77;6.93;;;7.30;99.90;;;;;;4993793;28;20355;-74
2024/02/28 11:37:22;;;;;;;14.07;7.30;;;7.40;99.90;;;;;;4987061;28;20205;-74
2024/02/28 11:39:49;;;;;;;12.23;7.10;;;7.30;99.90;;;;;;4992222;28;20214;-75
2024/02/28 11:42:17;;;;;;;15.07;8.35;;;7.30;99.90;;;;;;4986180;28;20584;-75
2024/02/28 11:44:44;;;;;;;11.98;8.38;;;7.40;99.90;;;;;;4998753;28;20314;-74
2024/02/28 11:47:11;;;;;;;11.80;7.50;;;7.50;99.90;;;;;;4995342;28;20555;-74
2024/02/28 11:49:38;;;;;;;14.43;8.10;;;7.60;99.90;;;;;;4998555;28;20255;-75
2024/02/28 11:52:07;;;;;;;13.70;7.95;;;7.60;99.90;;;;;;4998047;28;20206;-74
2024/02/28 11:54:34;;;;;;;11.55;8.18;;;7.70;99.90;;;;;;5003158;28;20226;-74
2024/02/28 11:57:00;;;;;;;10.30;7.63;;;7.70;99.90;;;;;;4997041;28;20213;-75
2024/02/28 11:59:27;;;;;;;9.55;6.22;;;7.70;99.90;;;;;;4987322;28;20211;-75
2024/02/28 12:01:55;;;;;;;9.75;7.13;;;7.80;99.90;;;;;;4992769;28;20200;-74
2024/02/28 12:04:25;;;;;;;10.98;6.97;;;7.70;99.90;;;;;;4993464;28;20315;-75
2024/02/28 12:06:51;;;;;;;8.10;6.38;;;7.80;99.90;;;;;;4989599;28;20262;-74
2024/02/28 12:09:19;;;;;;;11.07;7.00;;;7.80;99.90;;;;;;5003634;28;20232;-75
2024/02/28 12:11:47;;;;;;;10.90;6.97;;;7.80;99.90;;;;;;5001741;28;20335;-74
2024/02/28 12:14:14;;;;;;;9.35;7.13;;;7.80;99.90;;;;;;4989758;28;20226;-73
2024/02/28 12:16:41;;;;;;;10.52;7.10;;;7.80;99.90;;;;;;5005469;28;20216;-74
2024/02/28 12:19:09;;;;;;;12.02;7.30;;;7.80;99.90;;;;;;4992365;28;20206;-75
2024/02/28 12:21:36;;;;;;;9.95;7.28;;;7.80;99.90;;;;;;4999349;28;20214;-75
2024/02/28 12:24:04;;;;;;;15.40;7.75;;;7.80;99.90;;;;;;5005529;28;20605;-74
2024/02/28 12:26:32;;;;;;;9.55;7.40;;;7.80;99.90;;;;;;4998846;28;20211;-74
2024/02/28 12:28:59;;;;;;;8.98;7.10;;;7.80;99.90;;;;;;4995226;28;20225;-75
2024/02/28 12:31:26;;;;;;;9.65;7.43;;;7.80;99.90;;;;;;4997249;28;20220;-74
2024/02/28 12:33:53;;;;;;;11.77;7.30;;;7.80;99.90;;;;;;4996880;28;20230;-75
2024/02/28 12:36:20;;;;;;;13.52;7.85;;;7.70;99.90;;;;;;4992337;28;20259;-75
2024/02/28 12:38:47;;;;;;;9.60;7.00;;;7.70;99.90;;;;;;4995886;28;20211;-74
2024/02/28 12:41:13;;;;;;;11.05;6.57;;;7.60;99.90;;;;;;4996712;28;20196;-74
2024/02/28 12:43:41;;;;;;;12.38;8.00;;;7.60;99.90;;;;;;4988886;28;20227;-76
2024/02/28 12:46:08;;;;;;;10.80;6.63;;;7.70;99.90;;;;;;4980565;28;20213;-75
2024/02/28 12:48:39;;;;;;;9.80;6.90;;;7.80;99.90;;;;;;5003546;28;20215;-75